createdAt,value
2019-01-03T00:04:55.011Z,102507.27
2019-01-03T00:10:15.293Z,102501.94
2019-01-03T00:15:43.243Z,102505.52
2019-01-03T00:21:04.005Z,102502.32
2019-01-03T00:26:33.586Z,102504.12
2019-01-03T00:31:55.235Z,102511.58
2019-01-03T00:37:24.753Z,102505.45
2019-01-03T00:42:46.404Z,102513.14
2019-01-03T00:48:06.915Z,102513.67
2019-01-03T00:53:27.205Z,102515.63
2019-01-03T00:58:57.878Z,102518.31
2019-01-03T01:04:18.248Z,102527.64
2019-01-03T01:09:38.601Z,102530.55
2019-01-03T01:14:58.823Z,102529.92
2019-01-03T01:20:14.081Z,102544.20
2019-01-03T01:25:28.686Z,102554.08
2019-01-03T01:30:49.093Z,102559.88
2019-01-03T01:36:10.698Z,102566.70
2019-01-03T01:41:32.371Z,102564.29
2019-01-03T01:46:54.623Z,102566.47
2019-01-03T01:52:26.383Z,102570.03
2019-01-03T01:57:54.042Z,102574.41
2019-01-03T02:03:15.712Z,102576.59
2019-01-03T02:08:37.281Z,102577.84
2019-01-03T02:13:57.963Z,102572.65
2019-01-03T02:19:28.504Z,102582.67
2019-01-03T02:24:46.572Z,102575.64
2019-01-03T02:30:17.428Z,102566.53
2019-01-03T02:35:35.279Z,102560.93
2019-01-03T02:40:55.747Z,102558.33
2019-01-03T02:46:17.350Z,102560.06
2019-01-03T02:51:41.714Z,102545.95
2019-01-03T02:57:02.104Z,102538.09
2019-01-03T03:02:23.322Z,102537.45
2019-01-03T03:07:47.776Z,102542.55
2019-01-03T03:13:27.499Z,102530.98
2019-01-03T03:18:49.131Z,102530.61
2019-01-03T03:24:26.123Z,102523.63
2019-01-03T03:29:51.133Z,102524.06
2019-01-03T03:35:17.965Z,102504.85
2019-01-03T03:40:38.446Z,102491.35
2019-01-03T03:45:59.071Z,102491.88
2019-01-03T03:51:26.251Z,102482.78
2019-01-03T03:57:05.836Z,102481.30
2019-01-03T04:02:30.120Z,102483.30
2019-01-03T04:08:03.740Z,102485.95
2019-01-03T04:13:21.398Z,102480.26
2019-01-03T04:18:41.844Z,102479.91
2019-01-03T04:24:09.274Z,102475.33
2019-01-03T04:29:30.841Z,102473.31
2019-01-03T04:34:58.311Z,102470.48
2019-01-03T04:40:18.546Z,102461.42
2019-01-03T04:45:41.320Z,102463.56
2019-01-03T04:51:18.146Z,102464.49
2019-01-03T04:56:39.746Z,102463.63
2019-01-03T05:02:04.905Z,102467.99
2019-01-03T05:07:20.980Z,102465.55
2019-01-03T05:12:42.608Z,102472.88
2019-01-03T05:18:02.831Z,102471.50
2019-01-03T05:23:23.198Z,102466.08
2019-01-03T05:28:43.714Z,102456.45
2019-01-03T05:34:04.581Z,102473.03
2019-01-03T05:39:38.509Z,102465.16
2019-01-03T05:44:58.948Z,102468.46
2019-01-03T05:50:19.522Z,102471.32
2019-01-03T05:55:39.978Z,102473.41
2019-01-03T06:00:56.978Z,102483.16
2019-01-03T06:06:17.442Z,102484.69
2019-01-03T06:11:57.496Z,102477.48
2019-01-03T06:17:24.749Z,102467.44
2019-01-03T06:23:01.470Z,102465.91
2019-01-03T06:28:25.775Z,102472.39
2019-01-03T06:33:46.305Z,102472.68
2019-01-03T06:39:06.676Z,102477.74
2019-01-03T06:44:26.848Z,102476.48
2019-01-03T06:49:47.193Z,102474.30
2019-01-03T06:55:06.711Z,102489.62
2019-01-03T07:00:34.394Z,102490.59
2019-01-03T07:05:54.730Z,102489.48
2019-01-03T07:11:14.939Z,102484.56
2019-01-03T07:16:35.288Z,102491.68
2019-01-03T07:21:59.945Z,102479.00
2019-01-03T07:27:20.228Z,102490.63
2019-01-03T07:32:41.835Z,102490.10
2019-01-03T07:38:03.437Z,102496.35
2019-01-03T07:43:23.767Z,102496.96
2019-01-03T07:48:46.110Z,102503.09
2019-01-03T07:54:19.794Z,102503.94
2019-01-03T07:59:40.095Z,102515.30
2019-01-03T08:04:52.895Z,102509.98
2019-01-03T08:10:14.475Z,102514.34
2019-01-03T08:15:34.980Z,102517.14
2019-01-03T08:20:55.274Z,102519.25
2019-01-03T08:26:25.305Z,102523.41
2019-01-03T08:31:44.170Z,102514.23
2019-01-03T08:37:04.817Z,102511.35
2019-01-03T08:42:25.181Z,102517.13
2019-01-03T08:47:52.846Z,102511.67
2019-01-03T08:53:20.857Z,102509.38
2019-01-03T08:58:54.635Z,102514.25
2019-01-03T09:04:28.371Z,102516.47
2019-01-03T09:10:08.672Z,102526.34
2019-01-03T09:15:36.578Z,102521.72
2019-01-03T09:20:57.094Z,102516.11
2019-01-03T09:26:24.057Z,102521.52
2019-01-03T09:31:44.269Z,102530.78
2019-01-03T09:37:08.705Z,102536.98
2019-01-03T09:42:42.562Z,102527.56
2019-01-03T09:47:44.548Z,102533.11
2019-01-03T09:52:47.663Z,102524.73
2019-01-03T09:57:49.690Z,102527.64
2019-01-03T10:02:51.979Z,102533.30
2019-01-03T10:07:54.024Z,102533.70
2019-01-03T10:12:56.049Z,102536.48
2019-01-03T10:17:58.065Z,102525.16
2019-01-03T10:23:00.450Z,102522.55
2019-01-03T10:28:02.456Z,102516.16
2019-01-03T10:33:04.464Z,102512.52
2019-01-03T10:38:06.427Z,102507.90
2019-01-03T10:43:08.488Z,102505.33
2019-01-03T10:48:10.784Z,102490.73
2019-01-03T10:53:12.848Z,102484.72
2019-01-03T10:58:14.829Z,102492.27
2019-01-03T11:03:18.141Z,102472.97
2019-01-03T11:08:20.159Z,102466.54
2019-01-03T11:13:22.213Z,102460.78
2019-01-03T11:18:24.217Z,102454.69
2019-01-03T11:23:26.284Z,102449.91
2019-01-03T11:28:28.310Z,102439.38
2019-01-03T11:33:30.356Z,102440.60
2019-01-03T11:38:32.395Z,102433.49
2019-01-03T11:43:34.480Z,102433.05
2019-01-03T11:48:36.761Z,102431.39
2019-01-03T11:53:38.759Z,102442.45
2019-01-03T11:58:41.048Z,102436.30
2019-01-03T12:03:43.060Z,102436.27
2019-01-03T12:08:45.117Z,102435.08
2019-01-03T12:13:47.170Z,102425.95
2019-01-03T12:18:49.186Z,102425.91
2019-01-03T12:23:51.499Z,102406.16
2019-01-03T12:28:53.528Z,102405.79
2019-01-03T12:33:55.533Z,102394.88
2019-01-03T12:38:57.524Z,102393.53
2019-01-03T12:43:59.561Z,102400.59
2019-01-03T12:49:01.583Z,102408.45
2019-01-03T12:54:03.605Z,102405.52
2019-01-03T12:59:05.616Z,102408.16
2019-01-03T13:04:07.585Z,102412.55
2019-01-03T13:09:18.925Z,102414.27
2019-01-03T13:14:20.921Z,102408.66
2019-01-03T13:19:23.003Z,102405.58
2019-01-03T13:24:25.012Z,102402.06
2019-01-03T13:29:27.048Z,102402.03
2019-01-03T13:34:29.301Z,102406.80
2019-01-03T13:39:31.318Z,102409.44
2019-01-03T13:44:33.275Z,102406.40
2019-01-03T13:49:35.323Z,102399.41
2019-01-03T13:54:37.364Z,102400.28
2019-01-03T13:59:41.387Z,102414.80
2019-01-03T14:04:43.372Z,102415.22
2019-01-03T14:09:45.390Z,102416.56
2019-01-03T14:14:47.398Z,102408.66
2019-01-03T14:19:49.425Z,102417.50
2019-01-03T14:24:51.388Z,102413.08
2019-01-03T14:29:53.817Z,102416.16
2019-01-03T14:34:56.209Z,102419.64
2019-01-03T14:39:58.198Z,102414.80
2019-01-03T14:45:00.329Z,102422.23
2019-01-03T14:50:03.045Z,102420.89
2019-01-03T14:55:05.322Z,102422.24
2019-01-03T15:00:10.615Z,102420.95
2019-01-03T15:05:14.049Z,102409.97
2019-01-03T15:10:16.150Z,102410.00
2019-01-03T15:15:18.268Z,102415.24
2019-01-03T15:20:20.274Z,102416.59
2019-01-03T15:25:22.242Z,102420.08
2019-01-03T15:30:24.270Z,102416.53
2019-01-03T15:35:26.254Z,102425.75
2019-01-03T15:40:51.105Z,102430.48
2019-01-03T15:45:54.200Z,102436.95
2019-01-03T15:50:56.212Z,102429.77
2019-01-03T15:55:58.267Z,102429.77
2019-01-03T16:01:00.333Z,102424.15
2019-01-03T16:06:02.351Z,102422.47
2019-01-03T16:11:04.344Z,102432.56
2019-01-03T16:16:06.411Z,102427.70
2019-01-03T16:21:08.807Z,102442.10
2019-01-03T16:26:10.783Z,102446.70
2019-01-03T16:31:12.798Z,102446.55
2019-01-03T16:36:14.806Z,102458.00
2019-01-03T16:41:17.113Z,102455.37
2019-01-03T16:46:19.108Z,102442.05
2019-01-03T16:51:21.087Z,102442.66
2019-01-03T16:56:23.094Z,102440.91
2019-01-03T17:01:25.162Z,102436.78
2019-01-03T17:06:27.394Z,102433.33
2019-01-03T17:11:29.396Z,102435.02
2019-01-03T17:16:31.455Z,102441.66
2019-01-03T17:21:33.673Z,102438.66
2019-01-03T17:26:35.722Z,102443.47
2019-01-03T17:31:38.068Z,102440.22
2019-01-03T17:36:40.111Z,102448.99
2019-01-03T17:41:42.166Z,102448.61
2019-01-03T17:46:44.276Z,102468.01
2019-01-03T17:51:46.320Z,102468.46
2019-01-03T17:56:48.723Z,102478.16
2019-01-03T18:01:50.708Z,102477.72
2019-01-03T18:06:52.687Z,102472.09
2019-01-03T18:11:54.727Z,102478.73
2019-01-03T18:16:56.763Z,102472.16
2019-01-03T18:21:58.837Z,102474.01
2019-01-03T18:27:00.847Z,102477.52
2019-01-03T18:32:02.876Z,102475.34
2019-01-03T18:37:05.011Z,102477.95
2019-01-03T18:42:07.442Z,102473.03
2019-01-03T18:47:09.824Z,102485.55
2019-01-03T18:52:11.796Z,102488.50
2019-01-03T18:57:14.083Z,102476.15
2019-01-03T19:02:16.088Z,102475.71
2019-01-03T19:07:18.147Z,102481.63
2019-01-03T19:12:20.517Z,102484.42
2019-01-03T19:17:22.543Z,102497.63
2019-01-03T19:22:24.516Z,102507.22
2019-01-03T19:27:26.491Z,102505.00
2019-01-03T19:32:28.512Z,102510.48
2019-01-03T19:37:30.542Z,102505.32
2019-01-03T19:42:33.631Z,102499.55
2019-01-03T19:47:35.612Z,102498.05
2019-01-03T19:52:37.665Z,102501.75
2019-01-03T19:57:39.800Z,102495.61
2019-01-03T20:02:41.803Z,102499.91
2019-01-03T20:07:44.689Z,102496.45
2019-01-03T20:12:46.723Z,102484.15
2019-01-03T20:17:49.644Z,102493.18
2019-01-03T20:22:51.667Z,102491.72
2019-01-03T20:27:53.728Z,102499.66
2019-01-03T20:32:56.599Z,102498.80
2019-01-03T20:37:58.648Z,102499.23
2019-01-03T20:43:01.107Z,102500.02
2019-01-03T20:48:04.480Z,102502.05
2019-01-03T20:53:06.457Z,102499.05
2019-01-03T20:58:09.274Z,102500.36
2019-01-03T21:03:11.307Z,102498.62
2019-01-03T21:08:13.346Z,102497.16
2019-01-03T21:13:15.375Z,102496.25
2019-01-03T21:18:17.405Z,102508.86
2019-01-03T21:23:19.401Z,102511.91
2019-01-03T21:28:24.923Z,102507.96
2019-01-03T21:33:26.994Z,102508.39
2019-01-03T21:38:29.100Z,102512.67
2019-01-03T21:43:31.088Z,102517.83
2019-01-03T21:48:33.251Z,102511.53
2019-01-03T21:53:35.277Z,102507.53
2019-01-03T21:58:37.296Z,102506.80
2019-01-03T22:03:39.640Z,102514.61
2019-01-03T22:08:41.683Z,102512.63
2019-01-03T22:13:44.053Z,102518.86
2019-01-03T22:18:46.112Z,102526.23
2019-01-03T22:23:48.451Z,102535.94
2019-01-03T22:28:50.445Z,102541.23
2019-01-03T22:33:52.434Z,102547.97
2019-01-03T22:38:54.784Z,102544.92
2019-01-03T22:43:57.096Z,102551.34
2019-01-03T22:48:59.112Z,102557.30
2019-01-03T22:54:01.116Z,102561.71
2019-01-03T22:59:03.137Z,102568.19
2019-01-03T23:04:05.171Z,102567.92
2019-01-03T23:09:07.157Z,102568.69
2019-01-03T23:14:09.171Z,102570.55
2019-01-03T23:19:11.207Z,102569.60
2019-01-03T23:24:13.188Z,102574.98
2019-01-03T23:29:15.138Z,102565.30
2019-01-03T23:34:17.177Z,102552.06
2019-01-03T23:39:19.171Z,102556.45
2019-01-03T23:44:21.462Z,102552.37
2019-01-03T23:49:23.471Z,102547.85
2019-01-03T23:54:25.483Z,102545.98
2019-01-03T23:59:27.565Z,102548.22
